Weather at Circle Bar Landing Strip [CLOSED]

Public forecast

Using degrees Fahrenheit for public forecast. Weather courtesy of forecast.io.

Closest aviation weather report (METAR) to Circle Bar Landing Strip

Closest report is Ozona Municipal Airport, 6.0 nm (11.0 km) WNW.

2024/02/25 12:55 (retrieved 22 minutes ago)

KOZA 251255Z AUTO 00000KT 10SM CLR 08/02 A3008 RMK AO2

Closest aviation forecast (TAF) to Circle Bar Landing Strip

Closest forecast is Sonora Municipal Airport, 24.0 nm (44.5 km) ESE.

2024/02/25 12:22 (retrieved 55 minutes ago)

TAF KSOA 251120Z 2512/2612 21006KT P6SM SKC WS020/21035KT FM251600 23010KT P6SM FEW250 FM252000 26010G17KT P6SM FEW250 FM260000 VRB04KT P6SM SCT250